Terminal Aerodrome Forecast
Issued by NWS

Home | Current Version | Previous Version | Text Only | Print | Product List | Glossary On
Versions: 1 2 3 4 5 6 7 8 9 10 11 12 13 14 15 16 17 18 19 20
000
FTAK31 PAJN 301130
TAFAYA
TAF
PAYA 301130Z 3012/0112 08010G15KT P6SM VCSH SCT015 BKN025 OVC060
     FM301800 08015G25KT 5SM -RA BR FEW006 SCT010 OVC025
      WS020/10035KT
     FM302100 08020G30KT 3SM RA BR SCT006 OVC010 WS020/15050KT
     FM010600 12010G20KT 5SM -SHRA BR BKN015 OVC025 WS020/17035KT
     FM011000 12010G20KT 6SM -SHRA BR BKN015 OVC025
      AMD LTD TO CLD VIS AND WIND 0101/0109=

USA.gov is the U.S. government's official web portal to all federal, state and local government web resources and services.